THY1MG FAOR-FQMA
Flight info
| Callsign | THY1MG |
|---|---|
| Flight time | 0h 44m |
| Altitude | 29000 |
| Route | EXOBI3B EXOBI DCT ORNAD ORNAD1B |
| Aircraft | A359/H-SDE2E3GHIJ3J4J5LM1ORWXY/LB1D1 |
Departure
| Time | 2026-05-05 19:42 |
|---|---|
| Airport | O.R. Tambo International Airport (FAOR) |
Arrival
| Time | 2026-05-05 20:26 |
|---|---|
| Airport | Maputo Airport (FQMA) |
| Time | Latitude | Longitude | Altitude | Speed | Heading |
|---|---|---|---|---|---|
| 2026-05-05 19:15 | -26.12907 | 28.23489 | 5553 ft | 0 kts | 186° |
| 2026-05-05 19:30 | -26.12897 | 28.23491 | 5553 ft | 4 kts | 186° |
| 2026-05-05 19:30 | -26.12870 | 28.23494 | 5554 ft | 4 kts | 186° |
| 2026-05-05 19:30 | -26.12844 | 28.23497 | 5554 ft | 4 kts | 180° |
| 2026-05-05 19:31 | -26.12820 | 28.23490 | 5553 ft | 4 kts | 135° |
| 2026-05-05 19:31 | -26.12807 | 28.23466 | 5556 ft | 4 kts | 100° |
| 2026-05-05 19:31 | -26.12804 | 28.23443 | 5557 ft | 4 kts | 96° |
| 2026-05-05 19:31 | -26.12802 | 28.23421 | 5557 ft | 0 kts | 96° |
| 2026-05-05 19:35 | -26.12803 | 28.23430 | 5557 ft | 3 kts | 96° |
| 2026-05-05 19:36 | -26.12808 | 28.23479 | 5557 ft | 10 kts | 95° |
| 2026-05-05 19:36 | -26.12816 | 28.23569 | 5554 ft | 13 kts | 96° |
| 2026-05-05 19:36 | -26.12827 | 28.23678 | 5555 ft | 14 kts | 96° |
| 2026-05-05 19:36 | -26.12826 | 28.23770 | 5554 ft | 12 kts | 68° |
| 2026-05-05 19:37 | -26.12746 | 28.23820 | 5556 ft | 15 kts | 16° |
| 2026-05-05 19:37 | -26.12631 | 28.23856 | 5553 ft | 19 kts | 15° |
| 2026-05-05 19:37 | -26.12488 | 28.23900 | 5551 ft | 24 kts | 15° |
| 2026-05-05 19:37 | -26.12324 | 28.23950 | 5546 ft | 23 kts | 16° |
| 2026-05-05 19:38 | -26.12166 | 28.24000 | 5546 ft | 25 kts | 15° |
| 2026-05-05 19:38 | -26.11996 | 28.24052 | 5544 ft | 25 kts | 15° |
| 2026-05-05 19:38 | -26.11819 | 28.24106 | 5533 ft | 26 kts | 14° |
| 2026-05-05 19:38 | -26.11666 | 28.24152 | 5533 ft | 22 kts | 15° |
| 2026-05-05 19:39 | -26.11514 | 28.24201 | 5531 ft | 25 kts | 16° |
| 2026-05-05 19:39 | -26.11342 | 28.24255 | 5530 ft | 27 kts | 15° |
| 2026-05-05 19:39 | -26.11159 | 28.24313 | 5523 ft | 25 kts | 15° |
| 2026-05-05 19:39 | -26.11007 | 28.24359 | 5520 ft | 23 kts | 14° |
| 2026-05-05 19:40 | -26.10867 | 28.24393 | 5517 ft | 17 kts | 11° |
| 2026-05-05 19:40 | -26.10788 | 28.24430 | 5515 ft | 9 kts | 50° |
| 2026-05-05 19:40 | -26.10785 | 28.24508 | 5514 ft | 12 kts | 105° |
| 2026-05-05 19:40 | -26.10812 | 28.24585 | 5514 ft | 7 kts | 127° |
| 2026-05-05 19:41 | -26.10848 | 28.24605 | 5514 ft | 6 kts | 174° |
| 2026-05-05 19:41 | -26.10898 | 28.24594 | 5515 ft | 8 kts | 194° |
| 2026-05-05 19:41 | -26.10998 | 28.24563 | 5518 ft | 32 kts | 195° |
| 2026-05-05 19:41 | -26.11477 | 28.24414 | 5533 ft | 109 kts | 196° |
| 2026-05-05 19:42 | -26.12423 | 28.24123 | 5550 ft | 172 kts | 195° |
| 2026-05-05 19:42 | -26.13649 | 28.23788 | 6267 ft | 185 kts | 197° |
| 2026-05-05 19:42 | -26.14939 | 28.23436 | 7057 ft | 197 kts | 200° |
| 2026-05-05 19:42 | -26.16323 | 28.23031 | 7755 ft | 216 kts | 201° |
| 2026-05-05 19:43 | -26.17843 | 28.22594 | 8295 ft | 237 kts | 200° |
| 2026-05-05 19:43 | -26.19577 | 28.22518 | 8939 ft | 268 kts | 174° |
| 2026-05-05 19:43 | -26.21384 | 28.23393 | 9498 ft | 302 kts | 146° |
| 2026-05-05 19:43 | -26.22813 | 28.25177 | 10287 ft | 321 kts | 120° |
| 2026-05-05 19:44 | -26.23594 | 28.27580 | 10838 ft | 344 kts | 96° |
| 2026-05-05 19:44 | -26.23529 | 28.30276 | 11481 ft | 353 kts | 74° |
| 2026-05-05 19:44 | -26.22968 | 28.32959 | 12411 ft | 360 kts | 70° |
| 2026-05-05 19:44 | -26.22553 | 28.35755 | 13384 ft | 370 kts | 76° |
| 2026-05-05 19:45 | -26.22249 | 28.38631 | 14307 ft | 377 kts | 78° |
| 2026-05-05 19:45 | -26.21996 | 28.41562 | 15205 ft | 383 kts | 79° |
| 2026-05-05 19:45 | -26.21773 | 28.44537 | 16118 ft | 388 kts | 79° |
| 2026-05-05 19:45 | -26.21573 | 28.47550 | 17045 ft | 392 kts | 79° |
| 2026-05-05 19:46 | -26.21368 | 28.50600 | 17980 ft | 397 kts | 78° |
| 2026-05-05 19:46 | -26.21151 | 28.53678 | 18830 ft | 401 kts | 78° |
| 2026-05-05 19:46 | -26.20924 | 28.56798 | 19558 ft | 408 kts | 78° |
| 2026-05-05 19:46 | -26.20688 | 28.59968 | 20284 ft | 414 kts | 78° |
| 2026-05-05 19:47 | -26.20447 | 28.63183 | 21024 ft | 420 kts | 78° |
| 2026-05-05 19:47 | -26.20202 | 28.66443 | 21753 ft | 425 kts | 78° |
| 2026-05-05 19:47 | -26.19956 | 28.69743 | 22517 ft | 431 kts | 79° |
| 2026-05-05 19:47 | -26.19707 | 28.73084 | 23316 ft | 436 kts | 79° |
| 2026-05-05 19:48 | -26.19452 | 28.76468 | 24012 ft | 441 kts | 79° |
| 2026-05-05 19:48 | -26.19194 | 28.79889 | 24660 ft | 446 kts | 79° |
| 2026-05-05 19:48 | -26.18932 | 28.83340 | 25331 ft | 450 kts | 79° |
| 2026-05-05 19:48 | -26.18667 | 28.86831 | 25995 ft | 454 kts | 79° |
| 2026-05-05 19:49 | -26.18398 | 28.90346 | 26660 ft | 459 kts | 79° |
| 2026-05-05 19:49 | -26.18218 | 28.92702 | 27103 ft | 461 kts | 79° |
| 2026-05-05 19:49 | -26.17849 | 28.97488 | 27941 ft | 468 kts | 79° |
| 2026-05-05 19:49 | -26.17569 | 29.01121 | 28571 ft | 472 kts | 79° |
| 2026-05-05 19:50 | -26.17287 | 29.04773 | 28968 ft | 475 kts | 79° |
| 2026-05-05 19:50 | -26.17010 | 29.08400 | 29056 ft | 462 kts | 79° |
| 2026-05-05 19:50 | -26.16745 | 29.11895 | 29053 ft | 445 kts | 79° |
| 2026-05-05 19:51 | -26.16215 | 29.18667 | 29056 ft | 438 kts | 78° |
| 2026-05-05 19:51 | -26.15679 | 29.25413 | 29027 ft | 437 kts | 78° |
| 2026-05-05 19:52 | -26.15147 | 29.32105 | 29049 ft | 437 kts | 78° |
| 2026-05-05 19:52 | -26.14609 | 29.38839 | 29046 ft | 437 kts | 78° |
| 2026-05-05 19:53 | -26.14068 | 29.45577 | 29048 ft | 437 kts | 78° |
| 2026-05-05 19:53 | -26.13525 | 29.52310 | 29049 ft | 437 kts | 78° |
| 2026-05-05 19:54 | -26.12978 | 29.59053 | 29044 ft | 438 kts | 78° |
| 2026-05-05 19:54 | -26.12427 | 29.65810 | 29045 ft | 439 kts | 78° |
| 2026-05-05 19:55 | -26.11872 | 29.72571 | 29046 ft | 439 kts | 78° |
| 2026-05-05 19:55 | -26.11314 | 29.79336 | 29044 ft | 439 kts | 78° |
| 2026-05-05 19:56 | -26.10754 | 29.86090 | 29043 ft | 439 kts | 77° |
| 2026-05-05 19:56 | -26.10190 | 29.92839 | 29051 ft | 438 kts | 77° |
| 2026-05-05 19:57 | -26.09720 | 29.98445 | 29044 ft | 438 kts | 77° |
| 2026-05-05 19:57 | -26.09151 | 30.05185 | 29041 ft | 438 kts | 77° |
| 2026-05-05 19:58 | -26.08579 | 30.11922 | 29012 ft | 438 kts | 77° |
| 2026-05-05 19:58 | -26.07997 | 30.18694 | 29036 ft | 441 kts | 78° |
| 2026-05-05 19:59 | -26.07417 | 30.25499 | 29035 ft | 442 kts | 78° |
| 2026-05-05 19:59 | -26.06831 | 30.32314 | 29015 ft | 442 kts | 78° |
| 2026-05-05 20:00 | -26.06241 | 30.39105 | 29021 ft | 441 kts | 77° |
| 2026-05-05 20:00 | -26.05646 | 30.45896 | 29016 ft | 442 kts | 78° |
| 2026-05-05 20:01 | -26.05048 | 30.52707 | 28999 ft | 443 kts | 78° |
| 2026-05-05 20:01 | -26.04454 | 30.59479 | 29000 ft | 443 kts | 78° |
| 2026-05-05 20:01 | -26.04149 | 30.62908 | 28898 ft | 455 kts | 78° |
| 2026-05-05 20:02 | -26.03818 | 30.66518 | 28493 ft | 484 kts | 79° |
| 2026-05-05 20:02 | -26.03476 | 30.70301 | 27916 ft | 496 kts | 79° |
| 2026-05-05 20:02 | -26.03139 | 30.74122 | 27234 ft | 497 kts | 79° |
| 2026-05-05 20:02 | -26.02804 | 30.77935 | 26544 ft | 494 kts | 79° |
| 2026-05-05 20:03 | -26.02467 | 30.81728 | 25833 ft | 491 kts | 79° |
| 2026-05-05 20:03 | -26.02130 | 30.85498 | 25147 ft | 489 kts | 79° |
| 2026-05-05 20:03 | -26.01793 | 30.89241 | 24468 ft | 486 kts | 79° |
| 2026-05-05 20:03 | -26.01457 | 30.92963 | 23808 ft | 482 kts | 79° |
| 2026-05-05 20:04 | -26.01121 | 30.96662 | 23047 ft | 479 kts | 79° |
| 2026-05-05 20:04 | -26.00789 | 31.00323 | 22275 ft | 474 kts | 79° |
| 2026-05-05 20:04 | -26.00461 | 31.03953 | 21515 ft | 469 kts | 79° |
| 2026-05-05 20:04 | -26.00132 | 31.07541 | 20783 ft | 465 kts | 79° |
| 2026-05-05 20:05 | -25.99805 | 31.11098 | 20069 ft | 461 kts | 79° |
| 2026-05-05 20:05 | -25.99480 | 31.14630 | 19363 ft | 457 kts | 79° |
| 2026-05-05 20:05 | -25.99156 | 31.18130 | 18679 ft | 453 kts | 79° |
| 2026-05-05 20:05 | -25.98834 | 31.21596 | 17958 ft | 449 kts | 78° |
| 2026-05-05 20:06 | -25.98515 | 31.25023 | 17175 ft | 444 kts | 79° |
| 2026-05-05 20:06 | -25.98200 | 31.28406 | 16447 ft | 439 kts | 79° |
| 2026-05-05 20:06 | -25.97890 | 31.31744 | 15971 ft | 427 kts | 79° |
| 2026-05-05 20:06 | -25.97591 | 31.34983 | 15575 ft | 415 kts | 79° |
| 2026-05-05 20:07 | -25.97296 | 31.38129 | 15188 ft | 406 kts | 78° |
| 2026-05-05 20:07 | -25.97001 | 31.41242 | 14809 ft | 404 kts | 78° |
| 2026-05-05 20:07 | -25.96706 | 31.44340 | 14425 ft | 402 kts | 78° |
| 2026-05-05 20:07 | -25.96413 | 31.47414 | 14068 ft | 399 kts | 78° |
| 2026-05-05 20:08 | -25.96123 | 31.50472 | 13703 ft | 396 kts | 78° |
| 2026-05-05 20:08 | -25.95834 | 31.53510 | 13254 ft | 394 kts | 78° |
| 2026-05-05 20:08 | -25.95547 | 31.56520 | 12854 ft | 391 kts | 79° |
| 2026-05-05 20:08 | -25.95263 | 31.59510 | 12451 ft | 387 kts | 79° |
| 2026-05-05 20:09 | -25.94979 | 31.62471 | 12056 ft | 385 kts | 79° |
| 2026-05-05 20:09 | -25.94696 | 31.65420 | 11658 ft | 382 kts | 78° |
| 2026-05-05 20:09 | -25.94416 | 31.68345 | 11274 ft | 380 kts | 78° |
| 2026-05-05 20:09 | -25.94140 | 31.71214 | 10896 ft | 377 kts | 79° |
| 2026-05-05 20:10 | -25.93867 | 31.74069 | 10528 ft | 366 kts | 78° |
| 2026-05-05 20:10 | -25.93603 | 31.76841 | 10136 ft | 355 kts | 78° |
| 2026-05-05 20:10 | -25.93344 | 31.79533 | 9765 ft | 345 kts | 78° |
| 2026-05-05 20:10 | -25.93094 | 31.82130 | 9344 ft | 327 kts | 78° |
| 2026-05-05 20:11 | -25.92859 | 31.84582 | 8975 ft | 315 kts | 78° |
| 2026-05-05 20:11 | -25.92626 | 31.86964 | 8768 ft | 308 kts | 78° |
| 2026-05-05 20:11 | -25.92392 | 31.89324 | 8586 ft | 305 kts | 78° |
| 2026-05-05 20:11 | -25.92159 | 31.91673 | 8418 ft | 306 kts | 78° |
| 2026-05-05 20:12 | -25.91929 | 31.94018 | 8238 ft | 306 kts | 78° |
| 2026-05-05 20:12 | -25.91632 | 31.96342 | 8069 ft | 301 kts | 72° |
| 2026-05-05 20:12 | -25.91000 | 31.98533 | 7884 ft | 295 kts | 62° |
| 2026-05-05 20:12 | -25.90235 | 32.00639 | 7723 ft | 294 kts | 61° |
| 2026-05-05 20:13 | -25.89454 | 32.02734 | 7560 ft | 293 kts | 61° |
| 2026-05-05 20:13 | -25.88680 | 32.04817 | 7392 ft | 290 kts | 61° |
| 2026-05-05 20:13 | -25.87916 | 32.06883 | 7215 ft | 289 kts | 60° |
| 2026-05-05 20:13 | -25.87151 | 32.08952 | 7040 ft | 289 kts | 62° |
| 2026-05-05 20:14 | -25.86391 | 32.11013 | 6872 ft | 289 kts | 62° |
| 2026-05-05 20:14 | -25.85630 | 32.13075 | 6718 ft | 288 kts | 62° |
| 2026-05-05 20:14 | -25.84872 | 32.15130 | 6546 ft | 288 kts | 62° |
| 2026-05-05 20:14 | -25.84115 | 32.17181 | 6395 ft | 286 kts | 62° |
| 2026-05-05 20:15 | -25.83362 | 32.19221 | 6221 ft | 285 kts | 62° |
| 2026-05-05 20:15 | -25.82609 | 32.21261 | 6052 ft | 285 kts | 62° |
| 2026-05-05 20:15 | -25.81859 | 32.23291 | 5875 ft | 284 kts | 62° |
| 2026-05-05 20:15 | -25.81110 | 32.25315 | 5711 ft | 283 kts | 62° |
| 2026-05-05 20:16 | -25.80363 | 32.27335 | 5538 ft | 283 kts | 62° |
| 2026-05-05 20:16 | -25.79616 | 32.29354 | 5368 ft | 282 kts | 62° |
| 2026-05-05 20:16 | -25.78872 | 32.31361 | 5198 ft | 281 kts | 62° |
| 2026-05-05 20:16 | -25.78134 | 32.33356 | 5036 ft | 280 kts | 62° |
| 2026-05-05 20:17 | -25.77395 | 32.35351 | 4858 ft | 279 kts | 62° |
| 2026-05-05 20:17 | -25.76657 | 32.37340 | 4699 ft | 280 kts | 62° |
| 2026-05-05 20:17 | -25.75913 | 32.39343 | 4523 ft | 280 kts | 62° |
| 2026-05-05 20:17 | -25.75174 | 32.41335 | 4358 ft | 278 kts | 62° |
| 2026-05-05 20:18 | -25.74446 | 32.43302 | 4120 ft | 271 kts | 62° |
| 2026-05-05 20:18 | -25.73747 | 32.45196 | 3883 ft | 261 kts | 62° |
| 2026-05-05 20:18 | -25.73073 | 32.47016 | 3705 ft | 251 kts | 61° |
| 2026-05-05 20:18 | -25.72410 | 32.48796 | 3593 ft | 249 kts | 61° |
| 2026-05-05 20:19 | -25.71747 | 32.50566 | 3459 ft | 248 kts | 61° |
| 2026-05-05 20:19 | -25.71088 | 32.52327 | 3352 ft | 248 kts | 61° |
| 2026-05-05 20:19 | -25.70430 | 32.54090 | 3229 ft | 244 kts | 61° |
| 2026-05-05 20:19 | -25.69800 | 32.55795 | 3103 ft | 236 kts | 61° |
| 2026-05-05 20:20 | -25.69228 | 32.57492 | 2979 ft | 237 kts | 68° |
| 2026-05-05 20:20 | -25.69103 | 32.59332 | 2849 ft | 246 kts | 92° |
| 2026-05-05 20:20 | -25.69671 | 32.61123 | 2737 ft | 245 kts | 112° |
| 2026-05-05 20:20 | -25.70480 | 32.62746 | 2593 ft | 236 kts | 114° |
| 2026-05-05 20:21 | -25.71280 | 32.64287 | 2476 ft | 223 kts | 113° |
| 2026-05-05 20:21 | -25.72030 | 32.65730 | 2357 ft | 210 kts | 114° |
| 2026-05-05 20:21 | -25.72946 | 32.66936 | 2254 ft | 203 kts | 137° |
| 2026-05-05 20:21 | -25.74232 | 32.67531 | 2118 ft | 202 kts | 176° |
| 2026-05-05 20:22 | -25.75608 | 32.67376 | 2007 ft | 197 kts | 199° |
| 2026-05-05 20:22 | -25.76815 | 32.66706 | 1889 ft | 193 kts | 219° |
| 2026-05-05 20:22 | -25.77944 | 32.65916 | 1770 ft | 192 kts | 216° |
| 2026-05-05 20:22 | -25.79115 | 32.65211 | 1663 ft | 190 kts | 214° |
| 2026-05-05 20:23 | -25.80262 | 32.64517 | 1609 ft | 186 kts | 214° |
| 2026-05-05 20:23 | -25.81348 | 32.63853 | 1599 ft | 167 kts | 215° |
| 2026-05-05 20:23 | -25.82301 | 32.63270 | 1594 ft | 149 kts | 217° |
| 2026-05-05 20:23 | -25.83201 | 32.62712 | 1605 ft | 148 kts | 217° |
| 2026-05-05 20:24 | -25.84096 | 32.62156 | 1493 ft | 151 kts | 216° |
| 2026-05-05 20:24 | -25.85019 | 32.61586 | 1250 ft | 148 kts | 214° |
| 2026-05-05 20:24 | -25.85883 | 32.61042 | 1031 ft | 142 kts | 213° |
| 2026-05-05 20:24 | -25.86740 | 32.60513 | 832 ft | 136 kts | 211° |
| 2026-05-05 20:25 | -25.87546 | 32.60022 | 651 ft | 129 kts | 208° |
| 2026-05-05 20:25 | -25.88314 | 32.59561 | 464 ft | 122 kts | 206° |
| 2026-05-05 20:25 | -25.89035 | 32.59118 | 306 ft | 119 kts | 208° |
| 2026-05-05 20:25 | -25.89758 | 32.58673 | 156 ft | 118 kts | 206° |
| 2026-05-05 20:26 | -25.90422 | 32.58269 | 139 ft | 87 kts | 209° |
| 2026-05-05 20:26 | -25.90772 | 32.58054 | 139 ft | 41 kts | 208° |
| 2026-05-05 20:26 | -25.90974 | 32.57963 | 139 ft | 28 kts | 175° |
| 2026-05-05 20:26 | -25.91136 | 32.58007 | 139 ft | 15 kts | 169° |
| 2026-05-05 20:27 | -25.91233 | 32.57982 | 139 ft | 15 kts | 207° |
| 2026-05-05 20:27 | -25.91337 | 32.57920 | 139 ft | 19 kts | 208° |
| 2026-05-05 20:27 | -25.91470 | 32.57839 | 139 ft | 24 kts | 208° |
| 2026-05-05 20:27 | -25.91630 | 32.57741 | 138 ft | 28 kts | 208° |
| 2026-05-05 20:28 | -25.91811 | 32.57633 | 138 ft | 31 kts | 208° |
| 2026-05-05 20:28 | -25.91977 | 32.57531 | 138 ft | 25 kts | 209° |
| 2026-05-05 20:28 | -25.92100 | 32.57456 | 138 ft | 17 kts | 209° |
| 2026-05-05 20:28 | -25.92181 | 32.57433 | 138 ft | 10 kts | 152° |
| 2026-05-05 20:29 | -25.92190 | 32.57505 | 138 ft | 12 kts | 85° |
| 2026-05-05 20:29 | -25.92184 | 32.57595 | 138 ft | 8 kts | 88° |
| 2026-05-05 20:29 | -25.92204 | 32.57636 | 138 ft | 5 kts | 146° |
| 2026-05-05 20:29 | -25.92233 | 32.57644 | 138 ft | 5 kts | 172° |
| 2026-05-05 20:30 | -25.92260 | 32.57647 | 138 ft | 2 kts | 175° |
| 2026-05-05 20:30 | -25.92263 | 32.57647 | 138 ft | 0 kts | 176° |